sensor_id;sensor_type;location;lat;lon;timestamp;temperature;humidity
25410;DHT22;13339;50.840;4.346;2024-03-08T00:01:10;8.10;99.90
25410;DHT22;13339;50.840;4.346;2024-03-08T00:03:35;8.10;99.90
25410;DHT22;13339;50.840;4.346;2024-03-08T00:06:01;7.90;99.90
25410;DHT22;13339;50.840;4.346;2024-03-08T00:08:27;7.90;99.90
25410;DHT22;13339;50.840;4.346;2024-03-08T00:10:53;7.90;99.90
25410;DHT22;13339;50.840;4.346;2024-03-08T00:13:19;7.90;99.90
25410;DHT22;13339;50.840;4.346;2024-03-08T00:15:45;8.00;99.90
25410;DHT22;13339;50.840;4.346;2024-03-08T00:18:11;7.90;99.90
25410;DHT22;13339;50.840;4.346;2024-03-08T00:20:37;7.80;99.90
25410;DHT22;13339;50.840;4.346;2024-03-08T00:23:03;7.70;99.90
25410;DHT22;13339;50.840;4.346;2024-03-08T00:25:28;7.70;99.90
25410;DHT22;13339;50.840;4.346;2024-03-08T00:27:54;7.70;99.90
25410;DHT22;13339;50.840;4.346;2024-03-08T00:30:23;7.60;99.90
25410;DHT22;13339;50.840;4.346;2024-03-08T00:32:50;7.60;99.90
25410;DHT22;13339;50.840;4.346;2024-03-08T00:35:16;7.60;99.90
25410;DHT22;13339;50.840;4.346;2024-03-08T00:37:42;7.60;99.90
25410;DHT22;13339;50.840;4.346;2024-03-08T00:40:08;7.70;99.90
25410;DHT22;13339;50.840;4.346;2024-03-08T00:42:35;7.70;99.90
25410;DHT22;13339;50.840;4.346;2024-03-08T00:45:01;7.80;99.90
25410;DHT22;13339;50.840;4.346;2024-03-08T00:47:26;7.80;99.90
25410;DHT22;13339;50.840;4.346;2024-03-08T00:49:52;7.70;99.90
25410;DHT22;13339;50.840;4.346;2024-03-08T00:52:18;7.60;99.90
25410;DHT22;13339;50.840;4.346;2024-03-08T00:54:44;7.70;99.90
25410;DHT22;13339;50.840;4.346;2024-03-08T00:57:10;7.80;99.90
25410;DHT22;13339;50.840;4.346;2024-03-08T00:59:38;7.70;99.90
25410;DHT22;13339;50.840;4.346;2024-03-08T01:02:03;7.40;99.90
25410;DHT22;13339;50.840;4.346;2024-03-08T01:04:29;7.30;99.90
25410;DHT22;13339;50.840;4.346;2024-03-08T01:06:59;7.10;99.90
25410;DHT22;13339;50.840;4.346;2024-03-08T01:09:25;7.20;99.90
25410;DHT22;13339;50.840;4.346;2024-03-08T01:11:52;7.30;99.90
25410;DHT22;13339;50.840;4.346;2024-03-08T01:14:20;7.50;99.90
25410;DHT22;13339;50.840;4.346;2024-03-08T01:16:48;7.50;99.90
25410;DHT22;13339;50.840;4.346;2024-03-08T01:19:13;7.30;99.90
25410;DHT22;13339;50.840;4.346;2024-03-08T01:21:39;7.30;99.90
25410;DHT22;13339;50.840;4.346;2024-03-08T01:24:05;7.20;99.90
25410;DHT22;13339;50.840;4.346;2024-03-08T01:26:31;7.20;99.90
25410;DHT22;13339;50.840;4.346;2024-03-08T01:28:56;7.10;99.90
25410;DHT22;13339;50.840;4.346;2024-03-08T01:31:22;7.10;99.90
25410;DHT22;13339;50.840;4.346;2024-03-08T01:33:47;7.20;99.90
25410;DHT22;13339;50.840;4.346;2024-03-08T01:36:15;7.20;99.90
25410;DHT22;13339;50.840;4.346;2024-03-08T01:38:42;7.30;99.90
25410;DHT22;13339;50.840;4.346;2024-03-08T01:41:08;7.20;99.90
25410;DHT22;13339;50.840;4.346;2024-03-08T01:43:34;7.20;99.90
25410;DHT22;13339;50.840;4.346;2024-03-08T01:46:00;7.20;99.90
25410;DHT22;13339;50.840;4.346;2024-03-08T01:48:28;7.20;99.90
25410;DHT22;13339;50.840;4.346;2024-03-08T01:50:56;7.20;99.90
25410;DHT22;13339;50.840;4.346;2024-03-08T01:53:26;7.00;99.90
25410;DHT22;13339;50.840;4.346;2024-03-08T01:55:55;7.00;99.90
25410;DHT22;13339;50.840;4.346;2024-03-08T01:58:22;6.90;99.90
25410;DHT22;13339;50.840;4.346;2024-03-08T02:00:49;7.00;99.90
25410;DHT22;13339;50.840;4.346;2024-03-08T02:03:17;7.10;99.90
25410;DHT22;13339;50.840;4.346;2024-03-08T02:05:43;6.90;99.90
25410;DHT22;13339;50.840;4.346;2024-03-08T02:08:09;7.00;99.90
25410;DHT22;13339;50.840;4.346;2024-03-08T02:10:39;7.00;99.90
25410;DHT22;13339;50.840;4.346;2024-03-08T02:13:05;7.10;99.90
25410;DHT22;13339;50.840;4.346;2024-03-08T02:18:16;7.00;99.90
25410;DHT22;13339;50.840;4.346;2024-03-08T02:20:43;6.90;99.90
25410;DHT22;13339;50.840;4.346;2024-03-08T02:23:08;6.80;99.90
25410;DHT22;13339;50.840;4.346;2024-03-08T02:25:35;6.80;99.90
25410;DHT22;13339;50.840;4.346;2024-03-08T02:28:01;6.80;99.90
25410;DHT22;13339;50.840;4.346;2024-03-08T02:30:26;6.80;99.90
25410;DHT22;13339;50.840;4.346;2024-03-08T02:32:55;6.90;99.90
25410;DHT22;13339;50.840;4.346;2024-03-08T02:35:21;6.90;99.90
25410;DHT22;13339;50.840;4.346;2024-03-08T02:37:46;6.80;99.90
25410;DHT22;13339;50.840;4.346;2024-03-08T02:40:13;6.80;99.90
25410;DHT22;13339;50.840;4.346;2024-03-08T02:42:39;6.70;99.90
25410;DHT22;13339;50.840;4.346;2024-03-08T02:45:05;6.70;99.90
25410;DHT22;13339;50.840;4.346;2024-03-08T02:47:31;6.60;99.90
25410;DHT22;13339;50.840;4.346;2024-03-08T02:49:57;6.70;99.90
25410;DHT22;13339;50.840;4.346;2024-03-08T02:52:23;6.70;99.90
25410;DHT22;13339;50.840;4.346;2024-03-08T02:54:48;6.80;99.90
25410;DHT22;13339;50.840;4.346;2024-03-08T02:57:15;6.80;99.90
25410;DHT22;13339;50.840;4.346;2024-03-08T02:59:41;6.60;99.90
25410;DHT22;13339;50.840;4.346;2024-03-08T03:02:07;6.50;99.90
25410;DHT22;13339;50.840;4.346;2024-03-08T03:04:32;6.40;99.90
25410;DHT22;13339;50.840;4.346;2024-03-08T03:07:00;6.40;99.90
25410;DHT22;13339;50.840;4.346;2024-03-08T03:09:26;6.40;99.90
25410;DHT22;13339;50.840;4.346;2024-03-08T03:11:55;6.50;99.90
25410;DHT22;13339;50.840;4.346;2024-03-08T03:14:22;6.50;99.90
25410;DHT22;13339;50.840;4.346;2024-03-08T03:16:47;6.30;99.90
25410;DHT22;13339;50.840;4.346;2024-03-08T03:19:13;6.40;99.90
25410;DHT22;13339;50.840;4.346;2024-03-08T03:21:40;6.40;99.90
25410;DHT22;13339;50.840;4.346;2024-03-08T03:24:08;6.30;99.90
25410;DHT22;13339;50.840;4.346;2024-03-08T03:26:38;6.50;99.90
25410;DHT22;13339;50.840;4.346;2024-03-08T03:29:06;6.50;99.90
25410;DHT22;13339;50.840;4.346;2024-03-08T03:31:34;6.30;99.90
25410;DHT22;13339;50.840;4.346;2024-03-08T03:34:00;6.30;99.90
25410;DHT22;13339;50.840;4.346;2024-03-08T03:36:28;6.30;99.90
25410;DHT22;13339;50.840;4.346;2024-03-08T03:38:54;6.20;99.90
25410;DHT22;13339;50.840;4.346;2024-03-08T03:41:37;5.90;99.90
25410;DHT22;13339;50.840;4.346;2024-03-08T03:44:04;5.90;99.90
25410;DHT22;13339;50.840;4.346;2024-03-08T03:46:32;5.80;99.90
25410;DHT22;13339;50.840;4.346;2024-03-08T03:48:58;5.80;99.90
25410;DHT22;13339;50.840;4.346;2024-03-08T03:51:24;5.80;99.90
25410;DHT22;13339;50.840;4.346;2024-03-08T03:53:50;6.00;99.90
25410;DHT22;13339;50.840;4.346;2024-03-08T03:56:15;5.90;99.90
25410;DHT22;13339;50.840;4.346;2024-03-08T03:58:41;6.00;99.90
25410;DHT22;13339;50.840;4.346;2024-03-08T04:01:08;6.20;99.90
25410;DHT22;13339;50.840;4.346;2024-03-08T04:03:35;6.20;99.90
25410;DHT22;13339;50.840;4.346;2024-03-08T04:06:01;6.20;99.90
25410;DHT22;13339;50.840;4.346;2024-03-08T04:08:27;6.20;99.90
25410;DHT22;13339;50.840;4.346;2024-03-08T04:10:53;6.30;99.90
25410;DHT22;13339;50.840;4.346;2024-03-08T04:13:19;6.20;99.90
25410;DHT22;13339;50.840;4.346;2024-03-08T04:15:46;6.30;99.90
25410;DHT22;13339;50.840;4.346;2024-03-08T04:18:14;6.20;99.90
25410;DHT22;13339;50.840;4.346;2024-03-08T04:20:39;6.00;99.90
25410;DHT22;13339;50.840;4.346;2024-03-08T04:23:06;5.90;99.90
25410;DHT22;13339;50.840;4.346;2024-03-08T04:25:31;5.80;99.90
25410;DHT22;13339;50.840;4.346;2024-03-08T04:27:57;5.80;99.90
25410;DHT22;13339;50.840;4.346;2024-03-08T04:30:23;5.90;99.90
25410;DHT22;13339;50.840;4.346;2024-03-08T04:32:49;5.80;99.90
25410;DHT22;13339;50.840;4.346;2024-03-08T04:35:15;5.80;99.90
25410;DHT22;13339;50.840;4.346;2024-03-08T04:37:41;5.90;99.90
25410;DHT22;13339;50.840;4.346;2024-03-08T04:40:07;6.00;99.90
25410;DHT22;13339;50.840;4.346;2024-03-08T04:42:33;6.10;99.90
25410;DHT22;13339;50.840;4.346;2024-03-08T04:45:01;6.00;99.90
25410;DHT22;13339;50.840;4.346;2024-03-08T04:47:26;6.00;99.90
25410;DHT22;13339;50.840;4.346;2024-03-08T04:49:52;5.70;99.90
25410;DHT22;13339;50.840;4.346;2024-03-08T04:52:18;5.70;99.90
25410;DHT22;13339;50.840;4.346;2024-03-08T04:54:44;5.70;99.90
25410;DHT22;13339;50.840;4.346;2024-03-08T04:57:12;5.60;99.90
25410;DHT22;13339;50.840;4.346;2024-03-08T04:59:38;5.70;99.90
25410;DHT22;13339;50.840;4.346;2024-03-08T05:02:03;5.70;99.90
25410;DHT22;13339;50.840;4.346;2024-03-08T05:04:29;5.90;99.90
25410;DHT22;13339;50.840;4.346;2024-03-08T05:06:55;5.80;99.90
25410;DHT22;13339;50.840;4.346;2024-03-08T05:09:21;5.80;99.90
25410;DHT22;13339;50.840;4.346;2024-03-08T05:11:47;5.70;99.90
25410;DHT22;13339;50.840;4.346;2024-03-08T05:14:13;5.60;99.90
25410;DHT22;13339;50.840;4.346;2024-03-08T05:16:44;5.50;99.90
25410;DHT22;13339;50.840;4.346;2024-03-08T05:19:14;5.40;99.90
25410;DHT22;13339;50.840;4.346;2024-03-08T05:21:42;5.30;99.90
25410;DHT22;13339;50.840;4.346;2024-03-08T05:24:09;5.30;99.90
25410;DHT22;13339;50.840;4.346;2024-03-08T05:26:35;5.30;99.90
25410;DHT22;13339;50.840;4.346;2024-03-08T05:29:02;5.40;99.90
25410;DHT22;13339;50.840;4.346;2024-03-08T05:31:29;5.50;99.90
25410;DHT22;13339;50.840;4.346;2024-03-08T05:33:56;5.50;99.90
25410;DHT22;13339;50.840;4.346;2024-03-08T05:36:22;5.50;99.90
25410;DHT22;13339;50.840;4.346;2024-03-08T05:38:47;5.50;99.90
25410;DHT22;13339;50.840;4.346;2024-03-08T05:41:16;5.40;99.90
25410;DHT22;13339;50.840;4.346;2024-03-08T05:43:41;5.40;99.90
25410;DHT22;13339;50.840;4.346;2024-03-08T05:46:07;5.50;99.90
25410;DHT22;13339;50.840;4.346;2024-03-08T05:48:33;5.60;99.90
25410;DHT22;13339;50.840;4.346;2024-03-08T05:51:00;5.60;99.90
25410;DHT22;13339;50.840;4.346;2024-03-08T05:53:27;5.60;99.90
25410;DHT22;13339;50.840;4.346;2024-03-08T05:55:52;5.60;99.90
25410;DHT22;13339;50.840;4.346;2024-03-08T05:58:19;5.60;99.90
25410;DHT22;13339;50.840;4.346;2024-03-08T06:00:45;5.60;99.90
25410;DHT22;13339;50.840;4.346;2024-03-08T06:03:12;5.60;99.90
25410;DHT22;13339;50.840;4.346;2024-03-08T06:05:37;5.60;99.90
25410;DHT22;13339;50.840;4.346;2024-03-08T06:08:06;5.50;99.90
25410;DHT22;13339;50.840;4.346;2024-03-08T06:10:33;5.60;99.90
25410;DHT22;13339;50.840;4.346;2024-03-08T06:12:58;5.50;99.90
25410;DHT22;13339;50.840;4.346;2024-03-08T06:15:25;5.50;99.90
25410;DHT22;13339;50.840;4.346;2024-03-08T06:17:51;5.40;99.90
25410;DHT22;13339;50.840;4.346;2024-03-08T06:20:18;5.40;99.90
25410;DHT22;13339;50.840;4.346;2024-03-08T06:22:43;5.50;99.90
25410;DHT22;13339;50.840;4.346;2024-03-08T06:25:11;5.50;99.90
25410;DHT22;13339;50.840;4.346;2024-03-08T06:27:40;5.60;99.90
25410;DHT22;13339;50.840;4.346;2024-03-08T06:30:06;5.40;99.90
25410;DHT22;13339;50.840;4.346;2024-03-08T06:32:32;5.30;99.90
25410;DHT22;13339;50.840;4.346;2024-03-08T06:35:01;5.20;99.90
25410;DHT22;13339;50.840;4.346;2024-03-08T06:37:27;5.10;99.90
25410;DHT22;13339;50.840;4.346;2024-03-08T06:39:53;5.00;99.90
25410;DHT22;13339;50.840;4.346;2024-03-08T06:42:20;5.00;99.90
25410;DHT22;13339;50.840;4.346;2024-03-08T06:44:46;5.00;99.90
25410;DHT22;13339;50.840;4.346;2024-03-08T06:47:18;5.10;99.90
25410;DHT22;13339;50.840;4.346;2024-03-08T06:49:43;5.10;99.90
25410;DHT22;13339;50.840;4.346;2024-03-08T06:52:10;5.10;99.90
25410;DHT22;13339;50.840;4.346;2024-03-08T06:54:36;5.10;99.90
25410;DHT22;13339;50.840;4.346;2024-03-08T06:57:04;5.20;99.90
25410;DHT22;13339;50.840;4.346;2024-03-08T06:59:31;5.20;99.90
25410;DHT22;13339;50.840;4.346;2024-03-08T07:01:57;5.00;99.90
25410;DHT22;13339;50.840;4.346;2024-03-08T07:04:22;5.00;99.90
25410;DHT22;13339;50.840;4.346;2024-03-08T07:06:52;5.00;99.90
25410;DHT22;13339;50.840;4.346;2024-03-08T07:09:17;5.00;99.90
25410;DHT22;13339;50.840;4.346;2024-03-08T07:11:43;5.00;99.90
25410;DHT22;13339;50.840;4.346;2024-03-08T07:14:08;5.00;99.90
25410;DHT22;13339;50.840;4.346;2024-03-08T07:16:34;5.10;99.90
25410;DHT22;13339;50.840;4.346;2024-03-08T07:19:05;5.10;99.90
25410;DHT22;13339;50.840;4.346;2024-03-08T07:21:31;5.10;99.90
25410;DHT22;13339;50.840;4.346;2024-03-08T07:23:57;5.30;99.90
25410;DHT22;13339;50.840;4.346;2024-03-08T07:26:25;5.20;99.90
25410;DHT22;13339;50.840;4.346;2024-03-08T07:28:51;5.30;99.90
25410;DHT22;13339;50.840;4.346;2024-03-08T07:31:16;5.40;99.90
25410;DHT22;13339;50.840;4.346;2024-03-08T07:33:51;5.60;99.90
25410;DHT22;13339;50.840;4.346;2024-03-08T07:36:19;5.80;99.90
25410;DHT22;13339;50.840;4.346;2024-03-08T07:38:44;5.90;99.90
25410;DHT22;13339;50.840;4.346;2024-03-08T07:41:12;6.00;99.90
25410;DHT22;13339;50.840;4.346;2024-03-08T07:43:38;6.00;99.90
25410;DHT22;13339;50.840;4.346;2024-03-08T07:46:04;6.10;99.90
25410;DHT22;13339;50.840;4.346;2024-03-08T07:48:29;6.20;99.90
25410;DHT22;13339;50.840;4.346;2024-03-08T07:50:56;6.30;99.90
25410;DHT22;13339;50.840;4.346;2024-03-08T07:53:22;6.40;99.90
25410;DHT22;13339;50.840;4.346;2024-03-08T07:55:50;6.50;99.90
25410;DHT22;13339;50.840;4.346;2024-03-08T07:58:15;6.80;99.90
25410;DHT22;13339;50.840;4.346;2024-03-08T08:00:42;7.30;99.90
25410;DHT22;13339;50.840;4.346;2024-03-08T08:03:08;7.30;99.90
25410;DHT22;13339;50.840;4.346;2024-03-08T08:05:34;7.50;99.90
25410;DHT22;13339;50.840;4.346;2024-03-08T08:08:13;8.00;99.90
25410;DHT22;13339;50.840;4.346;2024-03-08T08:10:38;8.50;99.90
25410;DHT22;13339;50.840;4.346;2024-03-08T08:13:04;8.70;99.90
25410;DHT22;13339;50.840;4.346;2024-03-08T08:15:30;8.70;99.90
25410;DHT22;13339;50.840;4.346;2024-03-08T08:17:55;7.90;99.90
25410;DHT22;13339;50.840;4.346;2024-03-08T08:20:21;7.80;99.90
25410;DHT22;13339;50.840;4.346;2024-03-08T08:22:48;7.30;99.90
25410;DHT22;13339;50.840;4.346;2024-03-08T08:25:14;7.10;99.90
25410;DHT22;13339;50.840;4.346;2024-03-08T08:27:41;6.90;99.90
25410;DHT22;13339;50.840;4.346;2024-03-08T08:30:08;6.70;99.90
25410;DHT22;13339;50.840;4.346;2024-03-08T08:32:35;6.70;99.90
25410;DHT22;13339;50.840;4.346;2024-03-08T08:35:10;6.60;99.90
25410;DHT22;13339;50.840;4.346;2024-03-08T08:37:39;6.50;99.90
25410;DHT22;13339;50.840;4.346;2024-03-08T08:40:05;6.30;99.90
25410;DHT22;13339;50.840;4.346;2024-03-08T08:42:35;6.40;99.90
25410;DHT22;13339;50.840;4.346;2024-03-08T08:45:01;6.40;99.90
25410;DHT22;13339;50.840;4.346;2024-03-08T08:47:33;6.50;99.90
25410;DHT22;13339;50.840;4.346;2024-03-08T08:49:59;6.70;99.90
25410;DHT22;13339;50.840;4.346;2024-03-08T08:52:26;6.90;99.90
25410;DHT22;13339;50.840;4.346;2024-03-08T08:54:51;7.10;99.90
25410;DHT22;13339;50.840;4.346;2024-03-08T08:57:17;7.20;99.90
25410;DHT22;13339;50.840;4.346;2024-03-08T08:59:43;7.30;99.90
25410;DHT22;13339;50.840;4.346;2024-03-08T09:02:08;7.30;99.90
25410;DHT22;13339;50.840;4.346;2024-03-08T09:04:34;7.40;99.90
25410;DHT22;13339;50.840;4.346;2024-03-08T09:07:01;7.50;99.90
25410;DHT22;13339;50.840;4.346;2024-03-08T09:09:27;7.70;99.90
25410;DHT22;13339;50.840;4.346;2024-03-08T09:11:52;7.90;99.90
25410;DHT22;13339;50.840;4.346;2024-03-08T09:14:19;8.20;99.90
25410;DHT22;13339;50.840;4.346;2024-03-08T09:16:45;8.30;99.90
25410;DHT22;13339;50.840;4.346;2024-03-08T09:19:13;8.30;99.90
25410;DHT22;13339;50.840;4.346;2024-03-08T09:21:38;8.30;99.90
25410;DHT22;13339;50.840;4.346;2024-03-08T09:24:05;8.30;99.90
25410;DHT22;13339;50.840;4.346;2024-03-08T09:26:32;8.20;99.90
25410;DHT22;13339;50.840;4.346;2024-03-08T09:28:59;8.40;99.90
25410;DHT22;13339;50.840;4.346;2024-03-08T09:31:25;8.60;99.90
25410;DHT22;13339;50.840;4.346;2024-03-08T09:33:51;8.60;99.90
25410;DHT22;13339;50.840;4.346;2024-03-08T09:36:17;8.60;99.90
25410;DHT22;13339;50.840;4.346;2024-03-08T09:38:43;8.40;99.90
25410;DHT22;13339;50.840;4.346;2024-03-08T09:41:09;8.40;99.90
25410;DHT22;13339;50.840;4.346;2024-03-08T09:43:36;8.60;99.90
25410;DHT22;13339;50.840;4.346;2024-03-08T09:46:03;8.80;99.90
25410;DHT22;13339;50.840;4.346;2024-03-08T09:48:30;9.10;99.90
25410;DHT22;13339;50.840;4.346;2024-03-08T09:50:55;9.30;99.90
25410;DHT22;13339;50.840;4.346;2024-03-08T09:53:22;9.50;99.90
25410;DHT22;13339;50.840;4.346;2024-03-08T09:55:48;9.70;99.90
25410;DHT22;13339;50.840;4.346;2024-03-08T09:58:15;10.00;99.90
25410;DHT22;13339;50.840;4.346;2024-03-08T10:00:43;10.20;99.90
25410;DHT22;13339;50.840;4.346;2024-03-08T10:03:09;10.30;99.90
25410;DHT22;13339;50.840;4.346;2024-03-08T10:05:35;10.30;99.90
25410;DHT22;13339;50.840;4.346;2024-03-08T10:08:01;10.30;99.90
25410;DHT22;13339;50.840;4.346;2024-03-08T10:10:26;10.50;99.90
25410;DHT22;13339;50.840;4.346;2024-03-08T10:12:52;10.70;99.90
25410;DHT22;13339;50.840;4.346;2024-03-08T10:15:18;10.80;99.90
25410;DHT22;13339;50.840;4.346;2024-03-08T10:17:45;10.90;99.90
25410;DHT22;13339;50.840;4.346;2024-03-08T10:20:15;10.90;99.90
25410;DHT22;13339;50.840;4.346;2024-03-08T10:22:41;11.00;99.90
25410;DHT22;13339;50.840;4.346;2024-03-08T10:25:11;11.10;99.90
25410;DHT22;13339;50.840;4.346;2024-03-08T10:27:41;11.00;99.90
25410;DHT22;13339;50.840;4.346;2024-03-08T10:30:13;10.90;99.90
25410;DHT22;13339;50.840;4.346;2024-03-08T10:32:39;11.10;99.90
25410;DHT22;13339;50.840;4.346;2024-03-08T10:35:10;11.10;99.90
25410;DHT22;13339;50.840;4.346;2024-03-08T10:37:45;11.10;99.90
25410;DHT22;13339;50.840;4.346;2024-03-08T10:40:19;11.00;99.90
25410;DHT22;13339;50.840;4.346;2024-03-08T10:42:55;11.10;99.90
25410;DHT22;13339;50.840;4.346;2024-03-08T10:45:39;11.10;99.90
25410;DHT22;13339;50.840;4.346;2024-03-08T10:48:41;11.00;99.90
25410;DHT22;13339;50.840;4.346;2024-03-08T10:51:11;11.00;99.90
25410;DHT22;13339;50.840;4.346;2024-03-08T10:53:38;11.00;99.90
25410;DHT22;13339;50.840;4.346;2024-03-08T10:56:07;11.10;99.90
25410;DHT22;13339;50.840;4.346;2024-03-08T10:58:36;11.20;99.90
25410;DHT22;13339;50.840;4.346;2024-03-08T11:01:02;11.30;99.90
25410;DHT22;13339;50.840;4.346;2024-03-08T11:06:30;11.30;99.90
25410;DHT22;13339;50.840;4.346;2024-03-08T11:08:57;11.40;99.90
25410;DHT22;13339;50.840;4.346;2024-03-08T11:11:33;11.30;99.90
25410;DHT22;13339;50.840;4.346;2024-03-08T11:14:02;11.40;99.90
25410;DHT22;13339;50.840;4.346;2024-03-08T12:02:43;11.40;99.90
25410;DHT22;13339;50.840;4.346;2024-03-08T12:05:16;13.10;99.90
25410;DHT22;13339;50.840;4.346;2024-03-08T12:07:42;13.10;99.90
25410;DHT22;13339;50.840;4.346;2024-03-08T12:10:21;13.00;99.90
25410;DHT22;13339;50.840;4.346;2024-03-08T12:12:48;12.80;99.90
25410;DHT22;13339;50.840;4.346;2024-03-08T12:15:19;12.90;99.90
25410;DHT22;13339;50.840;4.346;2024-03-08T12:17:47;13.10;99.90
25410;DHT22;13339;50.840;4.346;2024-03-08T12:20:17;13.10;99.90
25410;DHT22;13339;50.840;4.346;2024-03-08T12:22:44;13.10;99.90
25410;DHT22;13339;50.840;4.346;2024-03-08T12:25:13;13.20;99.90
25410;DHT22;13339;50.840;4.346;2024-03-08T12:27:40;13.30;99.90
25410;DHT22;13339;50.840;4.346;2024-03-08T12:30:36;13.40;99.90
25410;DHT22;13339;50.840;4.346;2024-03-08T12:33:08;13.50;99.90
25410;DHT22;13339;50.840;4.346;2024-03-08T12:35:37;13.60;99.90
25410;DHT22;13339;50.840;4.346;2024-03-08T12:38:03;13.50;99.90
25410;DHT22;13339;50.840;4.346;2024-03-08T12:40:32;12.80;99.90
25410;DHT22;13339;50.840;4.346;2024-03-08T12:43:00;12.70;99.90
25410;DHT22;13339;50.840;4.346;2024-03-08T12:45:27;12.50;99.90
25410;DHT22;13339;50.840;4.346;2024-03-08T12:47:56;12.50;99.90
25410;DHT22;13339;50.840;4.346;2024-03-08T12:50:22;12.70;99.90
25410;DHT22;13339;50.840;4.346;2024-03-08T12:52:48;12.70;99.90
25410;DHT22;13339;50.840;4.346;2024-03-08T12:55:15;12.80;99.90
25410;DHT22;13339;50.840;4.346;2024-03-08T12:57:42;13.00;99.90
25410;DHT22;13339;50.840;4.346;2024-03-08T13:00:08;13.10;99.90
25410;DHT22;13339;50.840;4.346;2024-03-08T13:02:47;13.20;99.90
25410;DHT22;13339;50.840;4.346;2024-03-08T13:05:13;13.30;99.90
25410;DHT22;13339;50.840;4.346;2024-03-08T13:07:43;13.50;99.90
25410;DHT22;13339;50.840;4.346;2024-03-08T13:10:13;13.50;99.90
25410;DHT22;13339;50.840;4.346;2024-03-08T13:12:41;13.40;99.90
25410;DHT22;13339;50.840;4.346;2024-03-08T13:15:07;13.40;99.90
25410;DHT22;13339;50.840;4.346;2024-03-08T13:17:34;13.50;99.90
25410;DHT22;13339;50.840;4.346;2024-03-08T13:20:00;13.40;99.90
25410;DHT22;13339;50.840;4.346;2024-03-08T13:22:26;13.40;99.90
25410;DHT22;13339;50.840;4.346;2024-03-08T13:24:53;13.60;99.90
25410;DHT22;13339;50.840;4.346;2024-03-08T13:27:18;13.60;99.90
25410;DHT22;13339;50.840;4.346;2024-03-08T13:29:50;13.80;99.90
25410;DHT22;13339;50.840;4.346;2024-03-08T13:32:16;13.60;99.90
25410;DHT22;13339;50.840;4.346;2024-03-08T13:34:43;13.50;99.90
25410;DHT22;13339;50.840;4.346;2024-03-08T13:37:10;13.50;99.90
25410;DHT22;13339;50.840;4.346;2024-03-08T13:39:37;13.30;99.90
25410;DHT22;13339;50.840;4.346;2024-03-08T13:42:07;13.50;99.90
25410;DHT22;13339;50.840;4.346;2024-03-08T13:44:35;13.70;99.90
25410;DHT22;13339;50.840;4.346;2024-03-08T13:47:02;13.90;99.90
25410;DHT22;13339;50.840;4.346;2024-03-08T13:49:30;14.00;99.90
25410;DHT22;13339;50.840;4.346;2024-03-08T13:51:55;14.00;99.90
25410;DHT22;13339;50.840;4.346;2024-03-08T13:54:24;14.00;99.90
25410;DHT22;13339;50.840;4.346;2024-03-08T13:56:50;13.90;99.90
25410;DHT22;13339;50.840;4.346;2024-03-08T13:59:17;14.00;99.90
25410;DHT22;13339;50.840;4.346;2024-03-08T14:01:43;14.00;99.90
25410;DHT22;13339;50.840;4.346;2024-03-08T14:04:09;14.10;99.90
25410;DHT22;13339;50.840;4.346;2024-03-08T14:06:35;14.00;99.90
25410;DHT22;13339;50.840;4.346;2024-03-08T14:09:01;13.70;99.90
25410;DHT22;13339;50.840;4.346;2024-03-08T14:11:27;13.60;99.90
25410;DHT22;13339;50.840;4.346;2024-03-08T14:13:53;13.80;99.90
25410;DHT22;13339;50.840;4.346;2024-03-08T14:16:19;13.80;99.90
25410;DHT22;13339;50.840;4.346;2024-03-08T14:18:45;13.90;99.90
25410;DHT22;13339;50.840;4.346;2024-03-08T14:21:10;14.10;99.90
25410;DHT22;13339;50.840;4.346;2024-03-08T14:23:36;14.30;99.90
25410;DHT22;13339;50.840;4.346;2024-03-08T14:26:03;14.30;99.90
25410;DHT22;13339;50.840;4.346;2024-03-08T14:28:29;14.00;99.90
25410;DHT22;13339;50.840;4.346;2024-03-08T14:30:55;13.90;99.90
25410;DHT22;13339;50.840;4.346;2024-03-08T14:33:21;14.00;99.90
25410;DHT22;13339;50.840;4.346;2024-03-08T14:35:46;13.90;99.90
25410;DHT22;13339;50.840;4.346;2024-03-08T14:38:12;13.80;99.90
25410;DHT22;13339;50.840;4.346;2024-03-08T14:40:38;13.80;99.90
25410;DHT22;13339;50.840;4.346;2024-03-08T14:43:04;14.00;99.90
25410;DHT22;13339;50.840;4.346;2024-03-08T14:45:31;14.10;99.90
25410;DHT22;13339;50.840;4.346;2024-03-08T14:47:56;14.10;99.90
25410;DHT22;13339;50.840;4.346;2024-03-08T14:50:24;14.10;99.90
25410;DHT22;13339;50.840;4.346;2024-03-08T14:52:52;14.20;99.90
25410;DHT22;13339;50.840;4.346;2024-03-08T14:55:18;14.30;99.90
25410;DHT22;13339;50.840;4.346;2024-03-08T14:57:47;14.30;99.90
25410;DHT22;13339;50.840;4.346;2024-03-08T15:00:16;14.30;99.90
25410;DHT22;13339;50.840;4.346;2024-03-08T15:02:44;14.20;99.90
25410;DHT22;13339;50.840;4.346;2024-03-08T15:05:10;14.30;99.90
25410;DHT22;13339;50.840;4.346;2024-03-08T15:07:39;14.30;99.90
25410;DHT22;13339;50.840;4.346;2024-03-08T15:10:09;14.50;99.90
25410;DHT22;13339;50.840;4.346;2024-03-08T15:12:41;14.50;99.90
25410;DHT22;13339;50.840;4.346;2024-03-08T15:15:12;14.60;99.90
25410;DHT22;13339;50.840;4.346;2024-03-08T15:17:39;14.60;99.90
25410;DHT22;13339;50.840;4.346;2024-03-08T15:20:06;14.50;99.90
25410;DHT22;13339;50.840;4.346;2024-03-08T15:22:41;14.40;99.90
25410;DHT22;13339;50.840;4.346;2024-03-08T15:25:07;14.20;99.90
25410;DHT22;13339;50.840;4.346;2024-03-08T15:27:33;14.30;99.90
25410;DHT22;13339;50.840;4.346;2024-03-08T15:30:01;14.30;99.90
25410;DHT22;13339;50.840;4.346;2024-03-08T15:32:27;14.30;99.90
25410;DHT22;13339;50.840;4.346;2024-03-08T15:34:56;14.40;99.90
25410;DHT22;13339;50.840;4.346;2024-03-08T15:37:23;14.20;99.90
25410;DHT22;13339;50.840;4.346;2024-03-08T15:39:48;14.20;99.90
25410;DHT22;13339;50.840;4.346;2024-03-08T15:42:16;14.30;99.90
25410;DHT22;13339;50.840;4.346;2024-03-08T15:44:42;14.30;99.90
25410;DHT22;13339;50.840;4.346;2024-03-08T15:47:07;14.20;99.90
25410;DHT22;13339;50.840;4.346;2024-03-08T15:49:36;14.20;99.90
25410;DHT22;13339;50.840;4.346;2024-03-08T15:52:01;14.20;99.90
25410;DHT22;13339;50.840;4.346;2024-03-08T15:54:27;14.20;99.90
25410;DHT22;13339;50.840;4.346;2024-03-08T15:56:53;14.20;99.90
25410;DHT22;13339;50.840;4.346;2024-03-08T15:59:18;14.10;99.90
25410;DHT22;13339;50.840;4.346;2024-03-08T16:01:44;14.00;99.90
25410;DHT22;13339;50.840;4.346;2024-03-08T16:04:16;13.90;99.90
25410;DHT22;13339;50.840;4.346;2024-03-08T16:06:42;13.80;99.90
25410;DHT22;13339;50.840;4.346;2024-03-08T16:09:07;13.90;99.90
25410;DHT22;13339;50.840;4.346;2024-03-08T16:11:40;13.90;99.90
25410;DHT22;13339;50.840;4.346;2024-03-08T16:14:06;13.90;99.90
25410;DHT22;13339;50.840;4.346;2024-03-08T16:16:39;13.90;99.90
25410;DHT22;13339;50.840;4.346;2024-03-08T16:19:04;14.00;99.90
25410;DHT22;13339;50.840;4.346;2024-03-08T16:21:33;14.10;99.90
25410;DHT22;13339;50.840;4.346;2024-03-08T16:23:59;14.30;99.90
25410;DHT22;13339;50.840;4.346;2024-03-08T16:26:25;14.40;99.90
25410;DHT22;13339;50.840;4.346;2024-03-08T16:28:53;14.30;99.90
25410;DHT22;13339;50.840;4.346;2024-03-08T16:31:21;14.40;99.90